Arxan, China
Current Conditions -  °F | °C
As of 6:00 AM on Thursday 23 Oct 2014 (Local Time) from ZYHB Reporting Station
Smoke Smoke  
Wind Chill: 29°   Ceiling: Unl
Heat Index: 36°   Visibility: 0.81mi
Dew Point: 16°   Wind: 9mph
Humidity: 44%   Direction: 170°S
Pressure: 29.88"   Gusts: NA
Location:  47.17°N, 119.95°E
Report Text: ZYHB 222200Z 17004MPS 1300 R23/P2000 FU NSC 02/M09 Q1012 BECMGTL23301600
Loading
Personal Weather Stations






























Interactive Weather Map
Tropical Storm Tracking
New forecast layout! Learn more

10-Day Weather Forecast

Advertisements
Track Severe Weather on mobile